Deer Park, Washington
Current Conditions -  °F | °C
As of 8:53 AM on Saturday 22 Nov 2014 (Local Time) from KDEW Reporting Station
Clear Clear  
Wind Chill: 26°   Ceiling: Unl
Heat Index: 35°   Visibility: 10mi
Dew Point: 31°   Wind: 14mph
Humidity: 85%   Direction: 160°SSE
Pressure: 29.62"   Gusts: NA
Location:  47.95°N, 117.48°W
Report Text: KDEW 221653Z AUTO 16012KT 10SM CLR 02/M01 A2962 RMK AO2 SLP043 T00171006
Loading
Personal Weather Stations






























Interactive Weather Map New forecast layout! Learn more

10-Day Weather Forecast

Advertisements
Track Severe Weather on mobile